KLBB/LBB METAR and TAF weather

Enter ICAO airport designator
Station Type Date Time Source
KLBB METAR 2020/01/22 20:53 UTC NOAA

KLBB 222053Z 30017KT 10SM FEW055 SCT250 17/03 A2977 RMK AO2 SLP058 T01720028 56017 $


Station Type Date Time Source
KLBB Decoded METAR 2020/01/22 20:53 UTC NOAA

LUBBOCK INTERNATIONAL AIRPORT , TX, United States (KLBB) 33-40N 101-49W 992M
Jan 22, 2020 - 03:53 PM EST / 2020.01.22 2053 UTC
Wind: from the WNW (300 degrees) at 20 MPH (17 KT):0
Visibility: 10 mile(s):0
Sky conditions: partly cloudy
Temperature: 63.0 F (17.2 C)
Dew Point: 37.0 F (2.8 C)
Relative Humidity: 38%
Pressure (altimeter): 29.77 in. Hg (1008 hPa)
Pressure tendency: 0.05 inches (1.7 hPa) lower than three hours ago
ob: KLBB 222053Z 30017KT 10SM FEW055 SCT250 17/03 A2977 RMK AO2 SLP058 T01720028 56017
cycle: 21

Station Type Date Time Source
KLBB TAF 2020/01/22 18:24 UTC NOAA

TAF KLBB 221720Z 2218/2318 27015KT P6SM FEW250
FM222100 30011KT P6SM FEW250

Example: see airport list